• Join FlightAware (Why Join?)
  • Login
  • US Flag 
03:22PM EST


 

Airport Tracker/Info


-or-


 

Live Flight TrackerFlight Track Log ✈ DAL1114 ✈ 02-May-2013 ✈ KSLC - KBWI

Flight Track Log - Related Links

Times and Time Zones

All times are in EDT time to prevent confusion due to time zone crossing. See the DAL1114 flight status page for this flight to view local times or setup timezone preferences in your user account.

Time Position Orientation Groundspeed Altitude Reporting Facility
EDT Latitude Longitude Course Direction KTS MPH feet Rate Location/Type
07:20PM 40.8100 -111.9639 90° East 163 188 5,100  Level Salt Lake Center
07:21PM 40.8572 -111.9736 351° North 194 223 6,600 1,620 Climbing Salt Lake Center
07:22PM 40.9131 -111.9783 356° North 239 275 8,000 2,100 Climbing Salt Lake Center
07:23PM 41.1138 -111.7609 124° Southeast  Level FlightAware Approximate
07:23PM 40.9883 -111.9842 357° North 269 310 10,700  Level Salt Lake Center
07:24PM 41.0305 -111.6360 133° Southeast  Level FlightAware Approximate
07:24PM 41.0189 -111.9017 64° Northeast 272 313 13,300  Level Salt Lake Center
07:25PM 41.0334 -111.4787 90° East  Level FlightAware Approximate
07:25PM 41.0233 -111.7711 87° East 329 379 14,300  Level Salt Lake Center
07:26PM 41.0275 -111.6306 88° East 382 440 15,500 1,500 Climbing Salt Lake Center
07:27PM 41.0367 -111.4786 85° East 414 476 17,400 1,560 Climbing Salt Lake Center
07:28PM 41.0381 -111.3222 89° East 424 488 18,700 1,380 Climbing Salt Lake Center
07:29PM 41.0392 -111.1614 89° East 438 504 20,300 1,440 Climbing Salt Lake Center
07:30PM 41.0406 -110.9942 89° East 451 519 21,700 1,560 Climbing Salt Lake Center
07:31PM 41.0419 -110.8253 89° East 458 527 23,600 1,440 Climbing Salt Lake Center
07:32PM 41.0422 -110.6236 90° East 458 527 24,700 780 Climbing Salt Lake Center
07:33PM 41.0444 -110.4392 89° East 481 554 25,300 660 Climbing Salt Lake Center
07:34PM 41.0436 -110.2625 90° East 496 571 26,100 1,080 Climbing Salt Lake Center
07:35PM 41.0444 -110.0575 90° East 500 575 27,600 1,200 Climbing Salt Lake Center
07:36PM 41.0439 -109.8839 90° East 497 572 28,700 1,140 Climbing Salt Lake Center
07:37PM 41.0428 -109.6822 90° East 493 567 30,000 1,020 Climbing Salt Lake Center
07:38PM 41.0422 -109.5103 90° East 493 567 30,900 900 Climbing Salt Lake Center
07:39PM 41.0408 -109.3100 90° East 493 567 31,900 960 Climbing Salt Lake Center
07:40PM 41.0397 -109.1394 90° East 489 563 32,900 1,080 Climbing Salt Lake Center
07:41PM 41.0381 -108.9461 91° East 477 549 34,200 1,020 Climbing Salt Lake Center
07:42PM 41.0358 -108.7814 91° East 472 543 35,000 360 Climbing Salt Lake Center
07:43PM 41.0344 -108.6172 91° East 469 540 35,000  Level Salt Lake Center
07:44PM 41.0322 -108.4261 91° East 467 537 35,000  Level Salt Lake Center
07:45PM 41.0297 -108.2883 91° East 466 536 35,000  Level Denver Center
07:46PM 40.9981 -108.1256 104° East 484 557 35,000  Level Denver Center
07:47PM 40.9525 -107.9400 108° East 477 549 35,000  Level Denver Center
07:48PM 40.9536 -107.7758 89° East 467 537 35,000  Level Denver Center
07:49PM 40.9572 -107.5558 89° East 469 540 35,000  Level Denver Center
07:50PM 40.9583 -107.3897 89° East 472 543 35,000  Level Denver Center
07:51PM 40.9603 -107.1936 89° East 477 549 35,000  Level Denver Center
07:53PM 40.9606 -107.0275 90° East 474 545 35,000  Level Denver Center
07:54PM 40.9617 -106.8433 89° East 451 519 35,000  Level Denver Center
07:55PM 40.9622 -106.6864 90° East 446 513 35,000  Level Denver Center
07:56PM 40.9628 -106.5042 90° East 446 513 35,000  Level Denver Center
07:57PM 40.9611 -106.3489 91° East 445 512 35,000  Level Denver Center
07:58PM 40.9614 -106.1664 90° East 444 511 35,000  Level Denver Center
07:59PM 40.9619 -106.0150 90° East 446 513 35,000  Level Denver Center
08:00PM 40.9619 -105.8769 90° East 447 514 35,000  Level Denver Center
08:01PM 40.9594 -105.6608 91° East 438 504 35,000  Level Denver Center
08:02PM 40.9594 -105.4967 90° East 439 505 35,000  Level Denver Center
08:03PM 40.9581 -105.3347 91° East 439 505 35,000  Level Denver Center
08:04PM 40.9558 -105.1708 91° East 441 507 35,000  Level Denver Center
08:05PM 40.9539 -105.0064 91° East 442 509 35,000  Level Denver Center
08:06PM 40.9528 -104.8456 90° East 437 503 35,000  Level Denver Center
08:07PM 40.9494 -104.6889 92° East 425 489 35,000  Level Denver Center
08:08PM 40.9478 -104.5019 91° East 431 496 35,000  Level Denver Center
08:09PM 40.9444 -104.3397 92° East 435 501 35,000  Level Denver Center
08:10PM 40.9408 -104.1769 92° East 438 504 35,000  Level Denver Center
08:11PM 40.9381 -104.0142 91° East 438 504 35,000  Level Denver Center
08:12PM 40.9342 -103.8514 92° East 437 503 35,000  Level Denver Center
08:13PM 40.9311 -103.6875 91° East 442 509 35,000  Level Denver Center
08:14PM 40.9272 -103.5200 92° East 448 516 35,000  Level Denver Center
08:15PM 40.9231 -103.3500 92° East 457 526 35,000  Level Denver Center
08:16PM 40.9175 -103.1728 92° East 477 549 35,000  Level Denver Center
08:17PM 40.9133 -102.9872 92° East 475 547 35,000  Level Denver Center
08:18PM 40.8819 -102.7958 102° East 478 550 35,000  Level Denver Center
08:19PM 40.8550 -102.6317 102° East 477 549 35,000  Level Denver Center
08:20PM 40.8233 -102.4389 102° East 480 552 35,000  Level Denver Center
08:21PM 40.7997 -102.2731 101° East 481 554 35,000  Level Denver Center
08:23PM 40.7717 -102.0803 101° East 480 552 35,100  Climbing Denver Center
08:24PM 40.7628 -101.9153 94° East 474 545 35,000 -60 Descending Denver Center
08:25PM 40.7586 -101.7242 92° East 469 540 35,000  Level Denver Center
08:26PM 40.7531 -101.5636 93° East 462 532 35,000  Level Denver Center
08:27PM 40.7475 -101.3725 92° East 467 537 35,000  Level Denver Center
08:28PM 40.7422 -101.2103 92° East 466 536 35,000  Level Denver Center
08:29PM 40.7367 -101.0514 93° East 458 527 35,000 -60 Level Denver Center
08:30PM 40.7297 -100.8653 93° East 461 531 34,900  Descending Denver Center
08:31PM 40.7244 -100.6792 92° East 467 537 35,000  Climbing Denver Center
08:32PM 40.7178 -100.5181 93° East 467 537 35,000  Level Denver Center
08:33PM 40.7097 -100.3247 93° East 474 545 35,000  Level Denver Center
08:34PM 40.7031 -100.1581 93° East 478 550 35,000  Level Denver Center
08:35PM 40.6944 -99.9636 93° East 479 551 35,000  Level Denver Center
08:36PM 40.6869 -99.7944 93° East 479 551 35,000  Level Denver Center
08:37PM 40.6800 -99.6208 93° East 477 549 35,000  Level Denver Center
08:38PM 40.6708 -99.4453 94° East 479 551 35,000  Level Denver Center
08:39PM 40.6631 -99.2725 93° East 476 548 35,000  Level Denver Center
08:40PM 40.6528 -99.0631 94° East 479 551 35,000  Level Denver Center
08:40PM 40.6486 -98.9942 95° East 481 554 35,000  Level Minneapolis Center
08:41PM 40.6392 -98.8211 94° East 479 551 35,000  Level Minneapolis Center
08:43PM 40.6297 -98.6475 94° East 479 551 35,000  Level Minneapolis Center
08:44PM 40.6203 -98.4728 94° East 481 554 35,000  Level Minneapolis Center
08:45PM 40.6097 -98.2969 94° East 484 557 35,000  Level Minneapolis Center
08:46PM 40.5975 -98.0861 94° East 483 556 35,000  Level Minneapolis Center
08:47PM 40.5867 -97.9094 95° East 485 558 35,000  Level Minneapolis Center
08:48PM 40.5750 -97.7325 95° East 487 560 35,000  Level Minneapolis Center
08:49PM 40.5636 -97.5592 95° East 480 552 35,000  Level Minneapolis Center
08:50PM 40.5528 -97.3858 95° East 477 549 35,000  Level Minneapolis Center
08:51PM 40.5411 -97.1981 95° East 471 542 35,000  Level Minneapolis Center
08:52PM 40.5294 -97.0267 95° East 470 541 35,000  Level Minneapolis Center
08:53PM 40.5169 -96.8553 95° East 473 544 35,000  Level Minneapolis Center
08:54PM 40.5019 -96.6503 95° East 472 543 35,000  Level Minneapolis Center
08:55PM 40.4897 -96.4800 95° East 472 543 35,000  Level Minneapolis Center
08:56PM 40.4767 -96.3103 96° East 471 542 35,000  Level Minneapolis Center
08:57PM 40.4636 -96.1397 96° East 471 542 35,000  Level Minneapolis Center
08:58PM 40.4514 -95.9678 95° East 473 544 35,000  Level Minneapolis Center
08:59PM 40.4369 -95.7953 96° East 477 549 35,000  Level Minneapolis Center
09:00PM 40.4206 -95.5914 96° East 472 543 35,000  Level Minneapolis Center
09:01PM 40.4067 -95.4217 96° East 471 542 35,000  Level Minneapolis Center
09:02PM 40.3931 -95.2525 96° East 470 541 35,000  Level Minneapolis Center
09:03PM 40.3792 -95.0819 96° East 470 541 35,000  Level Minneapolis Center
09:04PM 40.3619 -94.8942 97° East 470 541 35,000  Level Minneapolis Center
09:05PM 40.3486 -94.7447 97° East 467 537 35,000  Level Minneapolis Center
09:06PM 40.3311 -94.5453 97° East 462 532 35,000  Level Minneapolis Center
09:07PM 40.3197 -94.3950 96° East 463 533 35,000  Level Minneapolis Center
09:08PM 40.3258 -94.2164 87° East 471 542 35,000 360 Level Kansas City Center
09:09PM 40.3300 -94.0478 88° East 480 552 35,800 720 Climbing Kansas City Center
09:10PM 40.3353 -93.8750 88° East 480 552 36,500 540 Climbing Kansas City Center
09:11PM 40.3411 -93.6700 88° East 473 544 37,000 240 Climbing Kansas City Center
09:12PM 40.3467 -93.5000 87° East 471 542 37,000  Level Kansas City Center
09:13PM 40.3506 -93.3286 88° East 473 544 37,000  Level Kansas City Center
09:14PM 40.3581 -93.1592 87° East 470 541 37,000  Level Kansas City Center
09:16PM 40.3628 -92.9806 88° East 462 532 37,000  Level Kansas City Center
09:17PM 40.3667 -92.8200 88° East 460 529 37,000  Level Kansas City Center
09:18PM 40.3719 -92.6431 88° East 463 533 37,000  Level Kansas City Center
09:19PM 40.3733 -92.4733 89° East 465 535 37,000  Level Kansas City Center
09:20PM 40.3775 -92.3072 88° East 466 536 37,000  Level Kansas City Center
09:21PM 40.3800 -92.1397 89° East 462 532 37,000  Level Kansas City Center
09:22PM 40.3822 -91.9375 89° East 465 535 37,000  Level Kansas City Center
09:23PM 40.3842 -91.7692 89° East 466 536 37,000  Level Kansas City Center
09:24PM 40.3864 -91.6003 89° East 466 536 37,000  Level Kansas City Center
09:25PM 40.3878 -91.4325 89° East 465 535 37,000  Level Kansas City Center
09:26PM 40.3906 -91.2539 89° East 469 540 37,000  Level Kansas City Center
09:27PM 40.3917 -91.0842 89° East 467 537 37,000  Level Kansas City Center
09:28PM 40.3944 -90.9136 89° East 469 540 37,000  Level Kansas City Center
09:29PM 40.3944 -90.7431 90° East 470 541 37,000  Level Kansas City Center
09:30PM 40.3953 -90.5383 90° East 469 540 37,000  Level Kansas City Center
09:31PM 40.3961 -90.3675 90° East 471 542 37,000  Level Kansas City Center
09:32PM 40.3961 -90.1964 90° East 472 543 37,000  Level Chicago Center
09:33PM 40.3953 -89.9908 90° East 475 547 37,000  Level Chicago Center
09:34PM 40.3944 -89.8194 90° East 476 548 37,000  Level Chicago Center
09:35PM 40.3944 -89.6478 90° East 477 549 37,000  Level Chicago Center
09:36PM 40.3928 -89.4756 91° East 476 548 37,000  Level Chicago Center
09:37PM 40.3925 -89.3039 90° East 475 547 37,000  Level Chicago Center
09:38PM 40.3908 -89.1347 91° East 470 541 37,000 -60 Level Chicago Center
09:39PM 40.3892 -88.9308 91° East 468 539 36,900  Descending Chicago Center
09:40PM 40.3875 -88.7592 91° East 472 543 37,000  Climbing Chicago Center
09:41PM 40.3847 -88.5856 91° East 479 551 37,000  Level Chicago Center
09:42PM 40.3833 -88.4064 91° East 479 551 37,000  Level Chicago Center
09:43PM 40.3803 -88.2342 91° East 479 551 37,000  Level Chicago Center
09:44PM 40.3778 -88.0661 91° East 471 542 37,000  Level Chicago Center
09:45PM 40.3736 -87.8644 91° East 467 537 37,000  Level Chicago Center
09:46PM 40.3706 -87.6908 91° East 472 543 37,000  Level Chicago Center
09:47PM 40.3667 -87.5181 92° East 477 549 37,000  Level Chicago Center
09:49PM 40.3631 -87.3436 91° East 473 544 37,000  Level Chicago Center
09:50PM 40.3586 -87.1733 92° East 469 540 37,000  Level Chicago Center
09:51PM 40.3533 -87.0050 92° East 465 535 37,000  Level Chicago Center
09:52PM 40.3492 -86.8378 92° East 460 529 37,000  Level Chicago Center
09:53PM 40.3428 -86.6372 92° East 459 528 37,000  Level Chicago Center
09:54PM 40.3381 -86.4694 92° East 459 528 37,000  Level Chicago Center
09:55PM 40.3325 -86.3022 92° East 459 528 37,000  Level Chicago Center
09:56PM 40.3272 -86.1314 92° East 466 536 37,000  Level Chicago Center
09:57PM 40.3200 -85.9639 93° East 461 531 37,000  Level Chicago Center
09:58PM 40.3147 -85.7953 92° East 462 532 37,000  Level Chicago Center
09:59PM 40.3075 -85.6250 93° East 467 537 37,000  Level Chicago Center
10:00PM 40.3011 -85.4558 93° East 467 537 37,000  Level Chicago Center
10:01PM 40.2922 -85.2536 93° East 464 534 37,000  Level Chicago Center
10:02PM 40.2833 -85.0842 94° East 465 535 37,000  Level Indianapolis Center
10:03PM 40.2764 -84.9169 93° East 461 531 37,000  Level Indianapolis Center
10:04PM 40.2697 -84.7450 93° East 462 532 37,000 -60 Level Indianapolis Center
10:05PM 40.2614 -84.5769 94° East 458 527 36,900 -60 Descending Indianapolis Center
10:06PM 40.2522 -84.4106 94° East 455 524 36,900  Level Indianapolis Center
10:07PM 40.2442 -84.2425 94° East 458 527 36,900  Level Indianapolis Center
10:08PM 40.2511 -84.0750 87° East 460 529 37,000  Climbing Indianapolis Center
10:09PM 40.2728 -83.9069 80° East 463 533 37,000 -60 Level Indianapolis Center
10:10PM 40.2636 -83.7386 94° East 459 528 36,900 -60 Descending Indianapolis Center
10:11PM 40.2514 -83.5692 95° East 460 529 36,900  Level Indianapolis Center
10:12PM 40.2383 -83.4000 96° East 460 529 37,000  Climbing Indianapolis Center
10:13PM 40.2436 -83.2281 88° East 466 536 37,000  Level Indianapolis Center
10:14PM 40.2456 -83.0569 89° East 468 539 37,000  Level Indianapolis Center
10:15PM 40.2269 -82.8906 98° East 458 527 37,000 -60 Level Indianapolis Center
10:16PM 40.2042 -82.6978 99° East 457 526 36,900 -60 Descending Indianapolis Center
10:17PM 40.1844 -82.5331 99° East 455 524 36,900  Level Indianapolis Center
10:18PM 40.1656 -82.3672 98° East 457 526 37,000  Climbing Indianapolis Center
10:19PM 40.1450 -82.2022 99° East 456 525 37,000 -60 Level Indianapolis Center
10:20PM 40.1244 -82.0383 99° East 453 521 36,900  Descending Indianapolis Center
10:21PM 40.1042 -81.8731 99° East 456 525 37,000  Climbing Indianapolis Center
10:22PM 40.0844 -81.7208 100° East 459 528 37,000  Level Indianapolis Center
10:23PM 40.0639 -81.5561 99° East 457 526 37,000  Level Indianapolis Center
10:24PM 40.0422 -81.3886 100° East 464 534 37,000  Level Indianapolis Center
10:25PM 40.0175 -81.1950 99° East 462 532 37,000  Level Indianapolis Center
10:26PM 40.0078 -81.0872 97° East 452 520 37,000  Level Cleveland Center
10:27PM 39.9853 -80.9381 101° East 452 520 37,000  Level Cleveland Center
10:28PM 39.9650 -80.7728 99° East 457 526 37,000  Level Cleveland Center
10:29PM 39.9422 -80.6075 100° East 462 532 37,000  Level Cleveland Center
10:30PM 39.9192 -80.4422 100° East 462 532 37,000  Level Cleveland Center
10:31PM 39.8978 -80.2772 100° East 467 537 37,000  Level Cleveland Center
10:32PM 39.8722 -80.1125 101° East 467 537 37,000  Level Cleveland Center
10:33PM 39.8422 -79.9450 103° East 467 537 37,000 -120 Level Cleveland Center
10:34PM 39.8100 -79.7831 104° East 467 537 36,800 -840 Descending Cleveland Center
10:35PM 39.7703 -79.5897 105° East 455 524 35,200 -2,400 Descending Washington Center
10:36PM 39.7339 -79.4258 106° East 468 539 31,600 -3,720 Descending Washington Center
10:37PM 39.7017 -79.2622 104° East 468 539 28,000 -3,180 Descending Washington Center
10:38PM 39.6667 -79.1014 106° East 463 533 25,300 -1,920 Descending Washington Center
10:39PM 39.6258 -78.9244 107° East 462 532 24,200 -1,680 Descending Washington Center
10:40PM 39.5928 -78.7692 105° East 462 532 22,000 -1,980 Descending Washington Center
10:41PM 39.5589 -78.6225 107° East 444 511 20,300 -1,740 Descending Washington Center
10:42PM 39.5272 -78.4758 106° East 432 497 18,600 -1,500 Descending Washington Center
10:43PM 39.4969 -78.3375 106° East 419 482 17,300 -1,440 Descending Washington Center
10:44PM 39.4667 -78.2019 106° East 401 461 15,800 -1,200 Descending Washington Center
10:45PM 39.4506 -78.0722 99° East 378 435 15,000 -1,320 Descending Washington Center
10:46PM 39.4508 -77.9539 90° East 350 403 13,200 -1,560 Descending Washington Center
10:47PM 39.4489 -77.8356 91° East 331 381 12,000 -960 Descending Washington Center
10:48PM 39.4486 -77.7361 90° East 326 375 11,400 -540 Descending Washington Center
10:49PM 39.4464 -77.6261 91° East 315 362 11,000 -240 Descending Washington Center
10:50PM 39.4461 -77.5239 90° East 290 334 11,000  Level Washington Center
10:51PM 39.4456 -77.4217 90° East 279 321 11,000 -300 Level Washington Center
10:52PM 39.4500 -77.3333 86° East 276 318 10,500 -1,200 Descending Potomac TRACON
10:53PM 39.4333 -77.2500 104° East 277 319 9,100 -1,620 Descending Potomac TRACON
10:54PM 39.4167 -77.1500 102° East 274 315 7,500 -1,440 Descending Potomac TRACON
10:55PM 39.4000 -77.0500 102° East 261 300 6,100 -1,320 Descending Potomac TRACON
10:56PM 39.3667 -76.9833 123° Southeast 248 285 5,000 -1,200 Descending Potomac TRACON
10:57PM 39.3333 -76.9167 123° Southeast 229 264 4,000 -900 Descending Potomac TRACON
10:58PM 39.3167 -76.8500 108° East 190 219 3,200 -720 Descending Potomac TRACON